createdAt,value
2023-04-02T00:00:38.146Z,8.52
2023-04-02T00:11:10.932Z,8.51
2023-04-02T00:21:35.507Z,8.50
2023-04-02T00:31:59.407Z,8.46
2023-04-02T00:42:20.934Z,8.42
2023-04-02T00:52:43.842Z,8.41
2023-04-02T01:03:17.455Z,8.41
2023-04-02T01:13:42.791Z,8.41
2023-04-02T01:24:09.348Z,8.42
2023-04-02T01:34:31.134Z,8.43
2023-04-02T01:44:54.991Z,8.43
2023-04-02T01:55:22.398Z,8.41
2023-04-02T02:05:44.200Z,8.38
2023-04-02T02:16:07.556Z,8.38
2023-04-02T02:26:30.124Z,8.38
2023-04-02T02:36:57.623Z,8.37
2023-04-02T02:47:21.892Z,8.35
2023-04-02T02:57:54.792Z,8.34
2023-04-02T03:08:29.179Z,8.36
2023-04-02T03:18:54.534Z,8.36
2023-04-02T03:29:27.503Z,8.38
2023-04-02T03:40:01.709Z,8.37
2023-04-02T03:50:52.135Z,8.37
2023-04-02T04:01:28.302Z,8.34
2023-04-02T04:11:52.690Z,8.33
2023-04-02T04:22:18.063Z,8.34
2023-04-02T04:32:50.605Z,8.34
2023-04-02T04:43:49.863Z,8.32
2023-04-02T04:54:14.032Z,8.29
2023-04-02T05:04:42.916Z,8.30
2023-04-02T05:15:16.681Z,8.30
2023-04-02T05:26:10.757Z,8.32
2023-04-02T05:36:32.704Z,8.34
2023-04-02T05:47:02.507Z,8.35
2023-04-02T05:57:44.584Z,8.34
2023-04-02T06:08:26.850Z,8.32
2023-04-02T06:18:48.405Z,8.30
2023-04-02T06:29:12.543Z,8.24
2023-04-02T06:39:35.035Z,8.21
2023-04-02T06:50:06.605Z,8.16
2023-04-02T07:00:39.002Z,8.13
2023-04-02T07:11:02.217Z,8.09
2023-04-02T07:21:23.688Z,8.02
2023-04-02T07:31:45.410Z,7.97
2023-04-02T07:42:08.246Z,7.94
2023-04-02T07:52:29.840Z,7.92
2023-04-02T08:02:51.854Z,7.87
2023-04-02T08:13:13.650Z,7.83
2023-04-02T08:23:36.240Z,7.77
2023-04-02T08:33:57.545Z,7.69
2023-04-02T08:44:43.667Z,7.64
2023-04-02T08:55:23.587Z,7.70
2023-04-02T09:05:47.559Z,7.71
2023-04-02T09:16:13.454Z,7.69
2023-04-02T09:26:34.758Z,7.73
2023-04-02T09:36:56.944Z,7.77
2023-04-02T09:47:27.560Z,7.73
2023-04-02T09:57:49.948Z,7.68
2023-04-02T10:08:28.304Z,7.67
2023-04-02T10:18:59.029Z,7.55
2023-04-02T10:29:23.441Z,7.51
2023-04-02T10:39:49.079Z,7.42
2023-04-02T10:50:31.640Z,7.34
2023-04-02T11:01:02.274Z,7.38
2023-04-02T11:11:30.713Z,7.27
2023-04-02T11:22:22.266Z,7.23
2023-04-02T11:32:49.969Z,7.27
2023-04-02T11:43:33.465Z,7.29
2023-04-02T11:53:58.607Z,7.36
2023-04-02T12:04:37.991Z,7.44
2023-04-02T12:15:00.154Z,7.44
2023-04-02T12:25:22.077Z,7.42
2023-04-02T12:35:47.047Z,7.41
2023-04-02T12:46:09.169Z,7.45
2023-04-02T12:56:30.307Z,7.47
2023-04-02T13:06:55.106Z,7.53
2023-04-02T13:17:39.045Z,7.58
2023-04-02T13:28:00.592Z,7.57
2023-04-02T13:38:22.867Z,7.57
2023-04-02T13:48:44.369Z,7.60
2023-04-02T13:59:06.994Z,7.56
2023-04-02T14:09:48.112Z,7.46
2023-04-02T14:20:17.548Z,7.44
2023-04-02T14:31:07.495Z,7.38
2023-04-02T14:41:42.993Z,7.30
2023-04-02T14:52:05.811Z,7.22
2023-04-02T15:03:04.458Z,7.21
2023-04-02T15:13:37.317Z,7.13
2023-04-02T15:24:23.032Z,7.01
2023-04-02T15:34:47.220Z,6.92
2023-04-02T15:45:08.921Z,6.90
2023-04-02T15:55:45.736Z,6.83
2023-04-02T16:06:23.756Z,6.77
2023-04-02T16:16:47.246Z,6.80
2023-04-02T16:27:26.594Z,6.70
2023-04-02T16:38:16.176Z,6.63
2023-04-02T16:48:46.708Z,6.50
2023-04-02T16:59:27.750Z,6.52
2023-04-02T17:09:53.918Z,6.55
2023-04-02T17:20:21.788Z,6.43
2023-04-02T17:30:47.377Z,6.29
2023-04-02T17:41:47.011Z,6.33
2023-04-02T17:52:37.429Z,6.34
2023-04-02T18:03:35.447Z,6.26
2023-04-02T18:14:00.997Z,6.19
2023-04-02T18:25:14.841Z,6.21
2023-04-02T18:36:05.323Z,6.22
2023-04-02T18:46:50.677Z,6.18
2023-04-02T18:57:18.264Z,6.14
2023-04-02T19:07:41.877Z,6.13
2023-04-02T19:18:06.262Z,5.97
2023-04-02T19:28:32.969Z,5.93
2023-04-02T19:39:04.239Z,5.90
2023-04-02T19:49:28.985Z,5.82
2023-04-02T19:59:50.186Z,5.81
2023-04-02T20:10:11.321Z,5.71
2023-04-02T20:20:32.543Z,5.69
2023-04-02T20:30:54.639Z,5.63
2023-04-02T20:41:16.454Z,5.59
2023-04-02T20:51:37.544Z,5.48
2023-04-02T21:01:58.642Z,5.39
2023-04-02T21:12:20.046Z,5.39
2023-04-02T21:22:41.417Z,5.37
2023-04-02T21:33:02.567Z,5.31
2023-04-02T21:43:24.017Z,5.22
2023-04-02T21:53:45.776Z,5.22
2023-04-02T22:04:08.748Z,5.14
2023-04-02T22:14:31.175Z,5.11
2023-04-02T22:24:52.362Z,5.12
2023-04-02T22:35:13.684Z,5.08
2023-04-02T22:45:35.775Z,5.07
2023-04-02T22:56:22.870Z,5.01
2023-04-02T23:06:44.578Z,5.04
2023-04-02T23:17:05.615Z,4.95
2023-04-02T23:27:26.962Z,4.93
2023-04-02T23:37:51.213Z,4.92
2023-04-02T23:48:12.584Z,4.78
2023-04-02T23:58:34.133Z,4.76
